Time;durP1;ratioP1;P1;durP2;ratioP2;P2;SDS_P1;SDS_P2;PMS_P1;PMS_P2;Temp;Humidity;BMP_temperature;BMP_pressure;BME280_temperature;BME280_humidity;BME280_pressure;Samples;Min_cycle;Max_cycle;Signal;HPM_P1;HPM_P2
2021/03/07 00:04:47;;;;;;;4.05;1.17;;;;;;;-5.27;41.71;98099.63;10640078;27;20146;-54
2021/03/07 00:09:49;;;;;;;3.10;1.15;;;;;;;-5.25;41.65;98073.97;10677170;27;20115;-53
2021/03/07 00:14:51;;;;;;;1.95;0.77;;;;;;;-5.25;42.05;98069.66;10673572;27;20368;-51
2021/03/07 00:19:53;;;;;;;4.37;1.30;;;;;;;-5.23;42.17;98044.81;10672744;27;20065;-56
2021/03/07 00:24:55;;;;;;;4.43;1.10;;;;;;;-5.15;41.79;98029.88;10673962;27;20133;-53
2021/03/07 00:29:58;;;;;;;2.95;1.23;;;;;;;-5.04;41.89;98014.00;10673643;27;20051;-54
2021/03/07 00:34:59;;;;;;;2.87;1.17;;;;;;;-5.01;41.94;98006.16;10671920;27;20042;-51
2021/03/07 00:40:01;;;;;;;2.58;0.90;;;;;;;-4.98;42.02;98006.03;10630810;27;20062;-52
2021/03/07 00:45:05;;;;;;;3.08;0.98;;;;;;;-4.86;41.62;97984.91;10630521;27;20047;-53
2021/03/07 00:50:09;;;;;;;4.75;1.40;;;;;;;-4.73;41.77;97974.84;10633645;27;20058;-56
2021/03/07 00:55:11;;;;;;;3.92;1.15;;;;;;;-4.61;41.65;97962.31;10632210;27;20054;-54
2021/03/07 01:00:17;;;;;;;4.63;1.52;;;;;;;-4.48;41.33;97950.53;10611050;27;20107;-52
2021/03/07 01:05:20;;;;;;;3.38;1.23;;;;;;;-4.34;41.11;97940.38;10631250;27;20503;-55
2021/03/07 01:10:25;;;;;;;4.90;1.50;;;;;;;-4.30;41.21;97934.16;10672691;27;20157;-55
2021/03/07 01:15:30;;;;;;;2.10;0.90;;;;;;;-4.14;40.87;97912.81;10642702;27;20075;-52
2021/03/07 01:20:32;;;;;;;4.22;0.90;;;;;;;-4.09;41.01;97903.13;10573704;28;20066;-59
2021/03/07 01:25:34;;;;;;;1.95;0.80;;;;;;;-4.05;41.14;97884.09;10586146;28;20050;-54
2021/03/07 01:30:39;;;;;;;7.97;1.10;;;;;;;-3.98;41.13;97865.69;10586390;28;20047;-52
2021/03/07 01:35:40;;;;;;;11.07;1.30;;;;;;;-3.89;41.14;97859.22;10591704;27;20043;-51
2021/03/07 01:40:44;;;;;;;3.30;1.10;;;;;;;-3.89;41.55;97825.84;10628173;27;20137;-51
2021/03/07 01:45:46;;;;;;;;;;;;;;;-3.89;42.25;97814.75;10629413;27;20080;-53
2021/03/07 01:50:50;;;;;;;2.40;0.75;;;;;;;-3.85;42.72;97793.94;10628047;27;20463;-52
2021/03/07 01:55:52;;;;;;;;;;;;;;;-3.85;43.39;97788.78;10630234;27;20043;-54
2021/03/07 02:00:55;;;;;;;2.20;0.75;;;;;;;-3.94;44.06;97777.34;10626469;27;20391;-52
2021/03/07 02:05:57;;;;;;;3.33;1.20;;;;;;;-4.00;44.34;97790.53;10600307;27;20035;-54
2021/03/07 02:11:00;;;;;;;2.50;0.80;;;;;;;-3.99;44.53;97770.81;10583863;28;20441;-54
2021/03/07 02:16:05;;;;;;;5.47;1.10;;;;;;;-3.92;44.83;97761.00;10583807;28;20046;-61
2021/03/07 02:21:11;;;;;;;1.85;0.80;;;;;;;-3.88;44.20;97755.59;10586733;28;20301;-53
2021/03/07 02:26:14;;;;;;;3.95;1.20;;;;;;;-3.94;44.30;97738.84;10585376;28;20051;-51
2021/03/07 02:31:19;;;;;;;5.07;1.00;;;;;;;-3.90;44.35;97733.53;10581703;28;20535;-53
2021/03/07 02:36:23;;;;;;;1.25;0.60;;;;;;;-3.97;44.54;97727.94;10595142;27;20054;-51
2021/03/07 02:41:30;;;;;;;3.50;1.17;;;;;;;-3.99;44.55;97697.19;10625433;27;20075;-52
2021/03/07 02:46:33;;;;;;;3.50;1.27;;;;;;;-3.97;44.59;97697.13;10625043;27;20079;-52
2021/03/07 02:51:37;;;;;;;2.13;0.88;;;;;;;-3.89;44.15;97669.25;10625680;27;20448;-56
2021/03/07 02:56:42;;;;;;;3.45;0.90;;;;;;;-3.79;44.17;97660.06;10624313;27;20053;-52
2021/03/07 03:01:45;;;;;;;4.63;0.90;;;;;;;-3.79;44.69;97649.81;10625802;27;20042;-54
2021/03/07 03:06:47;;;;;;;2.83;0.97;;;;;;;-3.86;45.27;97633.13;10657536;27;20053;-54
2021/03/07 03:11:54;;;;;;;3.03;1.00;;;;;;;-3.96;46.41;97626.91;10667457;27;20106;-54
2021/03/07 03:16:59;;;;;;;4.25;0.98;;;;;;;-3.96;47.23;97611.50;10666646;27;20039;-51
2021/03/07 03:22:01;;;;;;;1.70;0.65;;;;;;;-4.01;47.90;97593.78;10666307;27;20065;-54
2021/03/07 03:27:04;;;;;;;3.83;0.98;;;;;;;-3.98;48.41;97573.09;10666984;27;20049;-52
2021/03/07 03:32:06;;;;;;;3.38;1.13;;;;;;;-3.95;49.10;97567.75;10667646;27;20047;-57
2021/03/07 03:37:08;;;;;;;1.08;0.50;;;;;;;-3.89;49.44;97547.78;10650078;27;20484;-52
2021/03/07 03:42:12;;;;;;;4.53;1.33;;;;;;;-3.87;49.72;97523.69;10632626;27;20491;-54
2021/03/07 03:47:15;;;;;;;3.60;1.08;;;;;;;-3.82;50.26;97508.78;10632510;27;20138;-52
2021/03/07 03:52:18;;;;;;;1.25;0.55;;;;;;;-3.81;50.51;97497.63;10631927;27;20047;-56
2021/03/07 03:57:27;;;;;;;4.43;1.10;;;;;;;-3.75;50.56;97486.97;10630904;27;20104;-54
2021/03/07 04:02:29;;;;;;;1.58;0.60;;;;;;;-3.68;50.87;97468.63;10631660;27;20395;-53
2021/03/07 04:07:32;;;;;;;2.38;0.90;;;;;;;-3.71;51.51;97456.78;10670920;27;20461;-54
2021/03/07 04:12:37;;;;;;;3.17;0.93;;;;;;;-3.66;51.58;97433.38;10673225;27;20057;-53
2021/03/07 04:17:40;;;;;;;5.53;1.60;;;;;;;-3.60;51.48;97423.56;10673897;27;20046;-52
2021/03/07 04:22:42;;;;;;;5.50;1.20;;;;;;;-3.55;51.94;97400.13;10600217;27;20074;-52
2021/03/07 04:27:45;;;;;;;3.30;1.10;;;;;;;-3.51;52.05;97386.16;10587967;28;20050;-59
2021/03/07 04:32:47;;;;;;;1.83;0.50;;;;;;;-3.45;52.25;97372.91;10589353;28;20048;-52
2021/03/07 04:37:49;;;;;;;2.17;0.75;;;;;;;-3.37;52.00;97372.44;10612199;27;20047;-52
2021/03/07 04:42:52;;;;;;;4.63;1.30;;;;;;;-3.34;52.47;97342.22;10629429;27;20055;-53
2021/03/07 04:47:54;;;;;;;2.80;1.03;;;;;;;-3.28;52.72;97331.53;10633158;27;20039;-56
2021/03/07 04:52:56;;;;;;;2.95;1.17;;;;;;;-3.20;52.79;97317.34;10631179;27;20085;-52
2021/03/07 04:57:58;;;;;;;2.25;0.82;;;;;;;-3.10;52.99;97297.81;10629503;27;20080;-54
2021/03/07 05:03:00;;;;;;;3.15;1.38;;;;;;;-2.95;52.69;97281.34;10631926;27;20050;-53
2021/03/07 05:08:02;;;;;;;5.28;1.10;;;;;;;-2.84;52.77;97262.59;10672088;27;20100;-52
2021/03/07 05:13:05;;;;;;;6.50;2.15;;;;;;;-2.68;52.95;97262.34;10672036;27;20080;-52
2021/03/07 05:18:07;;;;;;;3.90;1.38;;;;;;;-2.59;52.62;97241.09;10673870;27;20049;-54
2021/03/07 05:23:09;;;;;;;2.70;1.10;;;;;;;-2.47;52.76;97235.09;10671287;27;20065;-54
2021/03/07 05:28:11;;;;;;;2.90;0.88;;;;;;;-2.39;52.69;97219.94;10670395;27;20045;-54
2021/03/07 05:33:16;;;;;;;6.10;1.90;;;;;;;-2.32;53.30;97203.09;10671806;27;20394;-54
2021/03/07 05:38:17;;;;;;;5.10;1.30;;;;;;;-2.24;53.00;97200.00;10641389;27;20141;-52
2021/03/07 05:43:20;;;;;;;2.97;1.17;;;;;;;-2.18;53.30;97189.25;10624692;27;20051;-53
2021/03/07 05:48:22;;;;;;;3.40;0.83;;;;;;;-2.13;53.26;97181.97;10616307;27;20100;-55
2021/03/07 05:53:24;;;;;;;3.63;1.20;;;;;;;-2.05;53.90;97183.19;10628158;27;20058;-52
2021/03/07 05:58:28;;;;;;;5.43;1.52;;;;;;;-1.90;53.25;97184.63;10630168;27;20081;-53
2021/03/07 06:03:30;;;;;;;3.25;1.48;;;;;;;-1.75;53.64;97177.50;10630285;27;20057;-52
2021/03/07 06:08:31;;;;;;;3.65;1.20;;;;;;;-1.70;53.51;97152.19;10587321;27;20044;-54
2021/03/07 06:13:43;;;;;;;4.63;1.10;;;;;;;-1.56;53.76;97151.97;10583448;28;20047;-49
2021/03/07 06:18:46;;;;;;;3.30;1.13;;;;;;;-1.46;53.57;97142.59;10585841;28;20784;-51
2021/03/07 06:23:47;;;;;;;5.70;1.40;;;;;;;-1.40;53.96;97133.56;10609775;27;20106;-49
2021/03/07 06:29:08;;;;;;;4.68;1.83;;;;;;;-1.26;54.10;97114.44;10626494;27;20051;-47
2021/03/07 06:34:10;;;;;;;4.03;1.15;;;;;;;-1.02;54.41;97106.53;10630812;27;20039;-48
2021/03/07 06:39:12;;;;;;;4.38;1.38;;;;;;;-0.89;54.28;97089.16;10662930;27;20043;-48
2021/03/07 06:44:17;;;;;;;5.18;2.22;;;;;;;-0.76;54.30;97070.94;10649406;27;20129;-48
2021/03/07 06:49:24;;;;;;;5.57;1.92;;;;;;;-0.57;54.52;97065.09;10668614;27;20127;-47
2021/03/07 06:54:28;;;;;;;1.77;0.70;;;;;;;-0.43;54.34;97061.34;10649264;27;20043;-53
2021/03/07 06:59:31;;;;;;;4.03;1.75;;;;;;;-0.30;54.14;97039.56;10626666;27;20039;-48
2021/03/07 07:04:41;;;;;;;4.45;1.40;;;;;;;-0.13;53.83;97027.81;10641349;27;20386;-49
2021/03/07 07:09:44;;;;;;;6.05;2.70;;;;;;;0.01;53.59;97016.31;10668321;27;20085;-50
2021/03/07 07:14:47;;;;;;;7.10;2.23;;;;;;;0.15;53.90;96990.13;10668327;27;20500;-48
2021/03/07 07:19:49;;;;;;;6.17;1.77;;;;;;;0.28;53.83;96989.91;10668848;27;20150;-47
2021/03/07 07:24:51;;;;;;;5.55;1.27;;;;;;;0.43;54.04;96979.97;10666072;27;20106;-49
2021/03/07 07:29:53;;;;;;;3.53;1.35;;;;;;;0.53;53.79;96974.84;10667429;27;20053;-48
2021/03/07 07:34:59;;;;;;;3.97;1.55;;;;;;;0.59;53.45;96943.28;10656194;27;20455;-52
2021/03/07 07:40:02;;;;;;;6.45;2.05;;;;;;;0.64;53.42;96933.31;10645576;27;20115;-50
2021/03/07 07:45:20;;;;;;;4.93;1.75;;;;;;;0.71;53.56;96920.66;10625803;28;20130;-47
2021/03/07 07:50:35;;;;;;;6.47;2.63;;;;;;;0.75;53.16;96914.28;10626411;28;20079;-50
2021/03/07 07:55:46;;;;;;;5.45;2.17;;;;;;;0.70;53.27;96901.75;10607640;28;20159;-52
2021/03/07 08:00:51;;;;;;;6.30;2.38;;;;;;;0.69;53.21;96895.78;10607609;28;20077;-51
2021/03/07 08:05:53;;;;;;;5.82;2.40;;;;;;;0.80;53.01;96875.88;10625980;28;20043;-48
2021/03/07 08:10:55;;;;;;;6.82;2.05;;;;;;;0.83;52.75;96879.03;10607419;28;20379;-48
2021/03/07 08:15:58;;;;;;;5.57;2.10;;;;;;;0.87;52.73;96877.78;10625279;28;20051;-49
2021/03/07 08:21:08;;;;;;;5.80;1.77;;;;;;;0.95;53.13;96853.78;10624894;28;20067;-48
2021/03/07 08:26:10;;;;;;;5.47;2.33;;;;;;;0.97;53.14;96845.91;10627811;27;20053;-51
2021/03/07 08:31:37;;;;;;;4.43;1.92;;;;;;;1.04;53.19;96836.63;10639890;27;20195;-48
2021/03/07 08:36:52;;;;;;;3.28;1.65;;;;;;;1.13;53.36;96833.19;10632916;27;20097;-49
2021/03/07 08:42:01;;;;;;;3.90;1.70;;;;;;;1.19;53.31;96832.63;10635985;27;20079;-51
2021/03/07 08:47:04;;;;;;;9.45;3.53;;;;;;;1.23;53.30;96821.03;10634456;27;20088;-48
2021/03/07 08:52:06;;;;;;;4.25;1.58;;;;;;;1.29;53.20;96809.28;10631672;27;20092;-49
2021/03/07 08:57:09;;;;;;;8.23;2.22;;;;;;;1.38;53.32;96801.47;10632956;27;20054;-51
2021/03/07 09:02:12;;;;;;;6.53;2.75;;;;;;;1.44;53.59;96791.50;10631832;27;20134;-48
2021/03/07 09:07:13;;;;;;;5.00;2.25;;;;;;;1.46;53.00;96787.00;10613663;27;20043;-50
2021/03/07 09:12:17;;;;;;;5.03;2.35;;;;;;;1.52;53.44;96789.00;10613352;27;20079;-49
2021/03/07 09:17:22;;;;;;;7.40;2.95;;;;;;;1.52;52.87;96789.81;10633046;27;20150;-48
2021/03/07 09:22:24;;;;;;;5.82;2.63;;;;;;;1.57;53.03;96771.25;10632883;27;20059;-51
2021/03/07 09:27:28;;;;;;;7.82;2.13;;;;;;;1.55;53.61;96748.09;10634217;27;20092;-49
2021/03/07 09:32:34;;;;;;;5.38;2.55;;;;;;;1.61;53.37;96757.06;10630936;27;20423;-49
2021/03/07 09:37:36;;;;;;;8.27;2.92;;;;;;;1.66;53.42;96741.88;10631987;27;20489;-53
2021/03/07 09:42:40;;;;;;;7.88;3.65;;;;;;;1.75;53.64;96746.19;10632579;27;20051;-52
2021/03/07 09:47:43;;;;;;;6.28;3.00;;;;;;;1.85;53.79;96728.00;10629711;27;20125;-52
2021/03/07 09:52:45;;;;;;;6.97;3.40;;;;;;;2.01;54.18;96722.13;10594183;27;20147;-49
2021/03/07 09:58:00;;;;;;;6.63;3.15;;;;;;;2.07;54.12;96718.94;10629450;27;20051;-49
2021/03/07 10:03:03;;;;;;;;;;;;;;;2.15;54.25;96715.56;10630490;27;20465;-50
2021/03/07 10:08:23;;;;;;;7.95;2.75;;;;;;;2.25;53.68;96709.34;10628452;27;19923;-50
2021/03/07 10:13:24;;;;;;;6.25;3.22;;;;;;;2.26;53.65;96690.22;10629000;27;20417;-53
2021/03/07 10:18:27;;;;;;;7.15;3.20;;;;;;;2.27;53.31;96697.03;10628890;27;20051;-50
2021/03/07 10:23:31;;;;;;;7.03;3.15;;;;;;;2.24;53.85;96710.28;10629523;27;20088;-49
2021/03/07 10:28:34;;;;;;;;;;;;;;;2.25;53.42;96687.81;10631966;27;20130;-51
2021/03/07 10:33:37;;;;;;;5.68;2.70;;;;;;;2.27;53.60;96701.41;10630248;27;19933;-51
2021/03/07 10:38:41;;;;;;;9.30;3.55;;;;;;;2.35;53.78;96677.34;10628562;27;20429;-52
2021/03/07 10:43:45;;;;;;;6.90;2.85;;;;;;;2.41;53.54;96677.53;10627630;27;20089;-50
2021/03/07 10:48:48;;;;;;;7.25;3.50;;;;;;;2.46;53.85;96667.53;10626677;27;20097;-52
2021/03/07 10:53:50;;;;;;;6.85;3.13;;;;;;;2.51;54.00;96682.59;10626981;27;20047;-54
2021/03/07 10:58:52;;;;;;;7.18;2.75;;;;;;;2.54;54.24;96677.09;10627527;27;20153;-51
2021/03/07 11:03:55;;;;;;;6.82;3.58;;;;;;;2.54;53.52;96651.97;10609856;27;20047;-52
2021/03/07 11:08:56;;;;;;;9.82;3.67;;;;;;;2.59;53.78;96658.50;10627197;27;20057;-49
2021/03/07 11:13:58;;;;;;;7.70;3.20;;;;;;;2.64;54.00;96657.03;10626846;27;20395;-53
2021/03/07 11:19:01;;;;;;;7.03;3.58;;;;;;;2.69;54.52;96648.81;10627051;27;20137;-52
2021/03/07 11:24:03;;;;;;;5.60;2.90;;;;;;;2.73;54.16;96656.09;10626422;27;20410;-48
2021/03/07 11:29:05;;;;;;;6.50;3.30;;;;;;;2.72;54.14;96644.13;10608296;28;20051;-52
2021/03/07 11:34:08;;;;;;;6.25;3.30;;;;;;;2.74;54.05;96647.38;10626453;28;20054;-50
2021/03/07 11:39:10;;;;;;;7.20;3.70;;;;;;;2.70;53.80;96648.63;10608047;28;20130;-52
2021/03/07 11:44:12;;;;;;;6.90;3.00;;;;;;;2.64;54.44;96646.66;10626238;28;20049;-51
2021/03/07 11:49:14;;;;;;;9.68;3.45;;;;;;;2.61;54.01;96634.00;10626445;28;20100;-52
2021/03/07 11:54:16;;;;;;;9.48;3.70;;;;;;;2.67;54.79;96622.22;10625541;28;20070;-51
2021/03/07 11:59:18;;;;;;;8.40;3.40;;;;;;;2.80;54.43;96608.78;10608237;27;20498;-49
2021/03/07 12:04:20;;;;;;;7.90;3.60;;;;;;;2.85;55.33;96612.53;10634566;27;20074;-52
2021/03/07 12:09:22;;;;;;;6.03;2.38;;;;;;;2.85;55.31;96619.50;10634143;27;20107;-49
2021/03/07 12:14:23;;;;;;;8.80;3.65;;;;;;;2.93;55.00;96599.59;10633865;27;20039;-51
2021/03/07 12:19:26;;;;;;;9.77;3.28;;;;;;;3.04;54.95;96602.84;10632962;27;20043;-48
2021/03/07 12:24:29;;;;;;;7.65;3.63;;;;;;;3.07;55.09;96600.75;10633056;27;20482;-52
2021/03/07 12:29:31;;;;;;;8.32;3.20;;;;;;;3.06;54.79;96606.13;10632673;27;20051;-50
2021/03/07 12:34:34;;;;;;;8.43;3.80;;;;;;;3.02;55.01;96607.38;10633403;27;20061;-53
2021/03/07 12:39:36;;;;;;;8.82;3.78;;;;;;;2.94;54.34;96621.16;10638093;27;20138;-53
2021/03/07 12:44:37;;;;;;;7.75;3.05;;;;;;;2.80;54.61;96647.69;10634582;27;20043;-52
2021/03/07 12:49:40;;;;;;;7.70;2.47;;;;;;;2.70;54.72;96651.22;10613882;27;20055;-49
2021/03/07 12:54:42;;;;;;;6.35;2.25;;;;;;;2.66;54.33;96660.31;10632664;27;20387;-50
2021/03/07 12:59:43;;;;;;;6.35;2.33;;;;;;;2.66;54.93;96656.91;10617545;27;20566;-55
2021/03/07 13:04:46;;;;;;;6.72;2.30;;;;;;;2.63;55.12;96652.84;10637133;27;20138;-52
2021/03/07 13:09:48;;;;;;;6.57;1.58;;;;;;;2.51;55.06;96644.50;10631967;27;20047;-51
2021/03/07 13:14:50;;;;;;;2.65;0.90;;;;;;;2.33;55.40;96655.94;10613040;27;20043;-52
2021/03/07 13:19:52;;;;;;;4.05;0.88;;;;;;;2.15;55.13;96667.16;10631341;27;20078;-52
2021/03/07 13:24:54;;;;;;;3.42;1.25;;;;;;;2.07;55.54;96662.75;10632157;27;20047;-50
2021/03/07 13:29:56;;;;;;;3.88;1.38;;;;;;;2.04;55.33;96665.63;10612607;27;20074;-52
2021/03/07 13:34:59;;;;;;;5.15;1.10;;;;;;;2.04;57.41;96664.81;10630459;27;20039;-52
2021/03/07 13:40:01;;;;;;;6.07;1.23;;;;;;;2.08;59.00;96659.19;10630065;27;20051;-49
2021/03/07 13:45:04;;;;;;;9.93;3.42;;;;;;;2.10;59.87;96664.22;10630179;27;20141;-51
2021/03/07 13:50:07;;;;;;;7.20;2.03;;;;;;;2.08;61.31;96651.41;10672409;27;20057;-50
2021/03/07 13:55:10;;;;;;;4.78;1.20;;;;;;;2.11;61.20;96645.09;10653817;27;20042;-49
2021/03/07 14:00:14;;;;;;;3.28;1.55;;;;;;;2.13;61.51;96637.19;10672183;27;20142;-50
2021/03/07 14:05:20;;;;;;;3.55;1.10;;;;;;;2.22;62.58;96625.91;10671757;27;20034;-51
2021/03/07 14:10:22;;;;;;;2.38;0.90;;;;;;;2.32;62.86;96618.81;10672253;27;20485;-52
2021/03/07 14:15:24;;;;;;;5.25;0.90;;;;;;;2.44;63.42;96614.19;10671980;27;20052;-50
2021/03/07 14:20:26;;;;;;;4.68;1.20;;;;;;;2.47;63.25;96619.06;10673416;27;20145;-51
2021/03/07 14:25:28;;;;;;;4.25;1.00;;;;;;;2.52;63.97;96624.56;10672427;27;20049;-50
2021/03/07 14:30:30;;;;;;;3.10;1.00;;;;;;;2.56;64.15;96628.50;10673040;27;20114;-53
2021/03/07 14:35:33;;;;;;;2.70;0.98;;;;;;;2.53;64.28;96636.59;10674946;27;20039;-51
2021/03/07 14:40:34;;;;;;;5.90;1.13;;;;;;;2.49;63.56;96643.03;10673251;27;20546;-49
2021/03/07 14:45:36;;;;;;;4.97;1.23;;;;;;;2.29;62.40;96648.47;10671700;27;20039;-50
2021/03/07 14:50:39;;;;;;;3.63;1.25;;;;;;;1.98;61.27;96662.84;10671499;27;20052;-50
2021/03/07 14:55:40;;;;;;;5.07;1.20;;;;;;;1.75;61.48;96659.91;10670917;27;20382;-53
2021/03/07 15:00:42;;;;;;;3.58;1.10;;;;;;;1.45;60.87;96653.34;10669787;27;20172;-49
2021/03/07 15:05:45;;;;;;;5.55;1.40;;;;;;;1.23;60.15;96655.44;10669650;27;20428;-51
2021/03/07 15:10:47;;;;;;;4.68;1.75;;;;;;;0.90;60.93;96657.66;10652444;27;20053;-50
2021/03/07 15:15:48;;;;;;;7.63;1.80;;;;;;;0.62;60.63;96672.38;10670315;27;20046;-52
2021/03/07 15:20:51;;;;;;;3.25;1.15;;;;;;;0.43;60.91;96672.44;10669534;27;20058;-51
2021/03/07 15:25:53;;;;;;;5.80;1.80;;;;;;;0.23;60.67;96682.84;10669529;27;20312;-49
2021/03/07 15:30:55;;;;;;;4.32;1.48;;;;;;;0.07;60.90;96676.63;10669204;27;20471;-50
2021/03/07 15:35:58;;;;;;;6.35;1.83;;;;;;;-0.13;60.98;96678.41;10672425;27;20374;-51
2021/03/07 15:41:00;;;;;;;5.93;1.77;;;;;;;-0.33;61.25;96680.22;10677899;27;20047;-51
2021/03/07 15:46:02;;;;;;;6.13;1.73;;;;;;;-0.52;61.72;96675.88;10660018;27;20111;-50
2021/03/07 15:51:04;;;;;;;5.57;1.83;;;;;;;-0.68;61.67;96680.75;10678429;27;20043;-51
2021/03/07 15:56:06;;;;;;;4.75;1.70;;;;;;;-0.82;61.90;96684.53;10677488;27;20114;-50
2021/03/07 16:01:08;;;;;;;5.18;2.03;;;;;;;-0.90;62.25;96687.78;10676927;27;20042;-51
2021/03/07 16:06:11;;;;;;;4.15;1.75;;;;;;;-1.01;62.93;96693.88;10676392;27;20053;-50
2021/03/07 16:11:13;;;;;;;4.55;1.75;;;;;;;-1.15;62.74;96701.97;10659411;27;20074;-52
2021/03/07 16:16:15;;;;;;;4.03;1.70;;;;;;;-1.22;62.68;96708.59;10676815;27;20519;-52
2021/03/07 16:21:18;;;;;;;3.80;1.50;;;;;;;-1.31;62.96;96717.13;10677090;27;20470;-50
2021/03/07 16:26:20;;;;;;;5.38;1.60;;;;;;;-1.37;62.71;96720.22;10678155;27;20104;-50
2021/03/07 16:31:21;;;;;;;3.92;1.40;;;;;;;-1.43;62.78;96716.38;10681903;27;20436;-51
2021/03/07 16:36:24;;;;;;;3.83;1.50;;;;;;;-1.47;62.95;96720.97;10683250;27;20092;-50
2021/03/07 16:41:26;;;;;;;5.30;1.92;;;;;;;-1.45;63.27;96724.25;10680543;27;20085;-49
2021/03/07 16:46:28;;;;;;;6.25;2.25;;;;;;;-1.48;63.45;96716.78;10660717;27;20516;-50
2021/03/07 16:51:31;;;;;;;5.15;1.73;;;;;;;-1.45;63.19;96719.09;10676129;27;20051;-50
2021/03/07 16:56:33;;;;;;;6.10;1.97;;;;;;;-1.46;63.54;96721.78;10675591;27;20085;-52
2021/03/07 17:01:34;;;;;;;3.80;1.58;;;;;;;-1.47;64.04;96723.56;10675456;27;20427;-54
2021/03/07 17:06:37;;;;;;;6.25;1.95;;;;;;;-1.43;64.70;96719.78;10674845;27;20488;-50
2021/03/07 17:11:39;;;;;;;5.03;2.20;;;;;;;-1.39;64.72;96712.59;10657029;27;20196;-51
2021/03/07 17:16:41;;;;;;;8.60;2.08;;;;;;;-1.28;64.64;96714.28;10656604;27;20062;-51
2021/03/07 17:21:44;;;;;;;6.68;1.98;;;;;;;-1.21;64.99;96713.63;10673701;27;20058;-51
2021/03/07 17:26:45;;;;;;;5.65;1.50;;;;;;;-1.00;65.23;96703.22;10674649;27;20103;-49
2021/03/07 17:31:47;;;;;;;5.40;1.80;;;;;;;-0.90;65.49;96699.84;10673727;27;20121;-51
2021/03/07 17:36:50;;;;;;;4.05;1.55;;;;;;;-0.81;64.95;96697.28;10673613;27;20364;-58
2021/03/07 17:41:52;;;;;;;6.00;1.90;;;;;;;-0.80;65.03;96690.38;10674093;27;20061;-49
2021/03/07 17:46:53;;;;;;;4.55;1.60;;;;;;;-0.93;64.57;96693.19;10673325;27;20043;-51
2021/03/07 17:51:56;;;;;;;4.10;1.45;;;;;;;-1.11;64.28;96700.75;10674963;27;20043;-52
2021/03/07 17:56:58;;;;;;;3.88;1.48;;;;;;;-1.22;64.03;96708.59;10673417;27;20126;-50
2021/03/07 18:02:00;;;;;;;4.60;1.60;;;;;;;-1.31;63.44;96714.53;10674007;27;20503;-49
2021/03/07 18:07:02;;;;;;;6.07;1.88;;;;;;;-1.38;63.13;96714.25;10654378;27;20134;-49
2021/03/07 18:12:05;;;;;;;4.40;1.90;;;;;;;-1.36;63.95;96708.94;10673130;27;20133;-50
2021/03/07 18:17:07;;;;;;;5.38;1.67;;;;;;;-1.28;64.04;96701.41;10672136;27;20138;-49
2021/03/07 18:22:10;;;;;;;5.03;1.85;;;;;;;-1.34;63.52;96696.75;10653897;27;20110;-51
2021/03/07 18:27:12;;;;;;;5.32;1.70;;;;;;;-1.42;63.59;96700.81;10671825;27;20053;-51
2021/03/07 18:32:14;;;;;;;3.22;1.05;;;;;;;-1.46;63.89;96699.41;10671283;27;20434;-52
2021/03/07 18:37:18;;;;;;;3.65;1.42;;;;;;;-1.49;63.98;96691.13;10653076;27;20057;-49
2021/03/07 18:42:19;;;;;;;;;;;;;;;-1.54;64.57;96683.81;10674311;27;20083;-51
2021/03/07 18:47:21;;;;;;;4.18;1.23;;;;;;;-1.41;65.16;96681.81;10651753;27;19973;-49
2021/03/07 18:52:24;;;;;;;3.95;1.52;;;;;;;-1.42;64.06;96672.47;10670666;27;20070;-52
2021/03/07 18:57:26;;;;;;;4.40;1.03;;;;;;;-1.51;63.55;96677.56;10676611;27;20394;-52
2021/03/07 19:02:29;;;;;;;4.95;2.03;;;;;;;-1.62;63.83;96683.63;10651930;27;20070;-50
2021/03/07 19:07:33;;;;;;;3.83;1.48;;;;;;;-1.68;64.22;96692.69;10651737;27;20467;-51
2021/03/07 19:12:40;;;;;;;3.63;1.00;;;;;;;-1.64;64.96;96698.38;10651873;27;20079;-49
2021/03/07 19:17:46;;;;;;;2.92;1.17;;;;;;;-1.64;65.48;96706.94;10653739;27;20042;-52
2021/03/07 19:22:52;;;;;;;4.45;1.27;;;;;;;-1.73;65.61;96712.84;10669576;27;20054;-51
2021/03/07 19:27:54;;;;;;;3.65;1.08;;;;;;;-1.89;65.97;96708.16;10670389;27;20051;-51
2021/03/07 19:32:58;;;;;;;3.30;1.23;;;;;;;-1.98;65.62;96716.63;10653567;27;20050;-54
2021/03/07 19:38:03;;;;;;;3.55;1.15;;;;;;;-2.13;65.70;96716.13;10652129;27;20069;-51
2021/03/07 19:43:06;;;;;;;4.22;1.38;;;;;;;-2.19;65.03;96726.09;10651290;27;20046;-53
2021/03/07 19:48:30;;;;;;;2.63;1.05;;;;;;;-2.22;64.99;96734.06;10650907;27;20042;-49
2021/03/07 19:53:33;;;;;;;5.68;1.10;;;;;;;-2.21;65.23;96751.16;10650353;27;20135;-50
2021/03/07 19:58:37;;;;;;;2.55;0.60;;;;;;;-2.19;65.67;96759.56;10668923;27;20038;-49
2021/03/07 20:03:59;;;;;;;6.50;1.33;;;;;;;-2.08;65.87;96762.91;10651420;27;20083;-51
2021/03/07 20:09:27;;;;;;;2.83;1.00;;;;;;;-2.05;64.89;96768.75;10651896;27;20382;-50
2021/03/07 20:14:30;;;;;;;2.30;0.80;;;;;;;-2.11;65.13;96782.94;10670079;27;20062;-49
2021/03/07 20:19:33;;;;;;;2.33;0.90;;;;;;;-2.18;64.71;96776.66;10669613;27;20460;-49
2021/03/07 20:24:37;;;;;;;0.77;0.50;;;;;;;-2.29;64.64;96794.69;10678494;27;20498;-52
2021/03/07 20:29:38;;;;;;;2.53;0.70;;;;;;;-2.33;64.32;96799.28;10660442;27;20077;-52
2021/03/07 20:34:41;;;;;;;3.63;0.80;;;;;;;-2.40;63.91;96811.81;10659074;27;20479;-48
2021/03/07 20:39:49;;;;;;;2.58;0.70;;;;;;;-2.42;64.08;96816.25;10658152;27;20051;-48
2021/03/07 20:44:55;;;;;;;1.75;0.80;;;;;;;-2.41;64.44;96815.28;10658068;27;20096;-52
2021/03/07 20:50:00;;;;;;;5.70;0.70;;;;;;;-2.39;64.54;96830.63;10675199;27;20057;-52
2021/03/07 20:55:06;;;;;;;2.03;0.60;;;;;;;-2.48;64.42;96837.31;10675985;27;20054;-52
2021/03/07 21:00:11;;;;;;;3.20;0.50;;;;;;;-2.53;64.38;96836.84;10675333;27;20039;-51
2021/03/07 21:05:16;;;;;;;2.25;0.60;;;;;;;-2.61;63.83;96841.78;10656614;27;20425;-48
2021/03/07 21:10:20;;;;;;;1.33;0.60;;;;;;;-2.62;63.35;96850.41;10656534;27;20106;-49
2021/03/07 21:15:22;;;;;;;3.38;0.63;;;;;;;-2.67;63.52;96844.81;10656998;27;20038;-48
2021/03/07 21:20:25;;;;;;;3.45;0.80;;;;;;;-2.69;63.35;96856.97;10660001;27;20054;-58
2021/03/07 21:25:28;;;;;;;4.63;0.90;;;;;;;-2.68;62.38;96863.75;10676647;27;20053;-52
2021/03/07 21:30:30;;;;;;;2.63;0.90;;;;;;;-2.65;61.85;96868.66;10677474;27;20066;-48
2021/03/07 21:35:31;;;;;;;10.52;4.40;;;;;;;-2.67;62.01;96873.09;10672686;27;20391;-51
2021/03/07 21:40:34;;;;;;;4.85;2.17;;;;;;;-2.72;61.87;96867.50;10655486;27;20047;-49
2021/03/07 21:45:36;;;;;;;5.37;1.50;;;;;;;-2.74;61.70;96867.63;10675486;27;20042;-53
2021/03/07 21:50:38;;;;;;;6.30;1.40;;;;;;;-2.74;61.90;96871.91;10674021;27;20387;-49
2021/03/07 21:55:40;;;;;;;3.70;1.00;;;;;;;-2.62;62.15;96876.13;10672998;27;20050;-51
2021/03/07 22:00:42;;;;;;;2.58;0.80;;;;;;;-2.49;62.24;96870.84;10672771;27;20375;-50
2021/03/07 22:05:44;;;;;;;3.33;1.02;;;;;;;-2.37;62.39;96877.63;10672339;27;20141;-51
2021/03/07 22:10:47;;;;;;;2.63;0.90;;;;;;;-2.29;62.40;96880.41;10672731;27;20489;-52
2021/03/07 22:16:06;;;;;;;3.17;1.00;;;;;;;-2.21;62.66;96880.66;10639722;27;20106;-48
2021/03/07 22:21:08;;;;;;;3.33;1.00;;;;;;;-2.15;63.07;96879.34;10653551;27;20062;-51
2021/03/07 22:26:14;;;;;;;3.53;1.20;;;;;;;-2.11;63.10;96878.97;10653295;27;20043;-48
2021/03/07 22:31:16;;;;;;;2.13;0.90;;;;;;;-1.96;63.40;96874.38;10652847;27;20057;-49
2021/03/07 22:36:17;;;;;;;2.28;0.88;;;;;;;-1.88;63.30;96879.75;10671421;27;20159;-49
2021/03/07 22:41:20;;;;;;;2.38;0.70;;;;;;;-1.91;63.54;96871.41;10670561;27;20521;-48
2021/03/07 22:46:22;;;;;;;2.53;0.70;;;;;;;-1.82;63.88;96885.31;10670298;27;20054;-52
2021/03/07 22:51:24;;;;;;;3.08;0.90;;;;;;;-1.70;63.59;96879.19;10670897;27;20432;-51
2021/03/07 22:56:26;;;;;;;2.58;0.80;;;;;;;-1.64;63.58;96876.94;10670728;27;20042;-48
2021/03/07 23:01:29;;;;;;;3.33;1.00;;;;;;;-1.63;63.03;96885.50;10655509;27;20070;-48
2021/03/07 23:06:30;;;;;;;5.93;0.90;;;;;;;-1.76;62.63;96887.41;10671820;27;20055;-51
2021/03/07 23:11:33;;;;;;;2.53;0.60;;;;;;;-1.97;61.92;96882.19;10672031;27;20417;-51
2021/03/07 23:16:35;;;;;;;3.15;0.75;;;;;;;-2.06;61.98;96890.66;10676854;27;20425;-58
2021/03/07 23:21:36;;;;;;;2.33;0.70;;;;;;;-1.96;62.70;96899.31;10676929;27;20057;-48
2021/03/07 23:26:39;;;;;;;2.50;0.80;;;;;;;-1.87;62.62;96886.50;10652700;27;20043;-49
2021/03/07 23:31:41;;;;;;;3.38;0.80;;;;;;;-1.91;62.29;96887.72;10669780;27;20055;-52
2021/03/07 23:36:42;;;;;;;4.07;0.90;;;;;;;-2.12;61.10;96884.25;10669663;27;20057;-49
2021/03/07 23:41:45;;;;;;;2.10;0.68;;;;;;;-2.23;61.31;96881.69;10668773;27;20391;-51